Time;durP1;ratioP1;P1;durP2;ratioP2;P2;SDS_P1;SDS_P2;PMS_P1;PMS_P2;Temp;Humidity;BMP_temperature;BMP_pressure;BME280_temperature;BME280_humidity;BME280_pressure;Samples;Min_cycle;Max_cycle;Signal;HPM_P1;HPM_P2
2022/03/27 00:01:46;;;;;;;2.65;2.55;;;;;;;;;;5091203;28;20061;-61
2022/03/27 00:04:12;;;;;;;0.10;0.10;;;;;;;;;;5090644;28;20047;-64
2022/03/27 00:06:37;;;;;;;0.20;0.20;;;;;;;;;;5091024;28;20154;-62
2022/03/27 00:09:03;;;;;;;0.20;0.20;;;;;;;;;;5090653;28;20036;-62
2022/03/27 00:11:29;;;;;;;0.20;0.20;;;;;;;;;;5055609;28;20040;-63
2022/03/27 00:14:04;;;;;;;0.20;0.20;;;;;;;;;;5055627;28;20039;-63
2022/03/27 00:16:30;;;;;;;0.20;0.20;;;;;;;;;;5091874;28;20036;-62
2022/03/27 00:18:56;;;;;;;0.20;0.20;;;;;;;;;;5076324;28;20084;-62
2022/03/27 00:21:21;;;;;;;0.20;0.20;;;;;;;;;;5094361;28;20036;-63
2022/03/27 00:23:47;;;;;;;0.20;0.20;;;;;;;;;;5094403;28;20028;-62
2022/03/27 00:26:14;;;;;;;0.10;0.10;;;;;;;;;;5076299;28;20035;-62
2022/03/27 00:28:39;;;;;;;0.10;0.10;;;;;;;;;;5059594;28;20028;-62
2022/03/27 00:31:06;;;;;;;2.05;1.95;;;;;;;;;;5094345;28;20039;-62
2022/03/27 00:33:32;;;;;;;0.40;0.40;;;;;;;;;;5076146;28;20043;-64
2022/03/27 00:36:04;;;;;;;0.20;0.20;;;;;;;;;;5059572;28;20058;-65
2022/03/27 00:38:33;;;;;;;0.30;0.30;;;;;;;;;;5075983;28;20046;-64
2022/03/27 00:40:59;;;;;;;0.10;0.10;;;;;;;;;;5076150;28;20135;-64
2022/03/27 00:43:25;;;;;;;0.20;0.20;;;;;;;;;;5094160;28;20056;-62
2022/03/27 00:45:51;;;;;;;0.22;0.22;;;;;;;;;;5076115;28;20078;-61
2022/03/27 00:48:19;;;;;;;0.20;0.20;;;;;;;;;;5059494;28;20039;-62
2022/03/27 00:50:49;;;;;;;0.20;0.20;;;;;;;;;;5059175;28;20024;-62
2022/03/27 00:53:14;;;;;;;0.30;0.30;;;;;;;;;;5093648;28;20032;-62
2022/03/27 00:55:40;;;;;;;0.20;0.20;;;;;;;;;;5059288;28;20036;-62
2022/03/27 00:58:05;;;;;;;0.20;0.20;;;;;;;;;;5093578;28;20024;-63
2022/03/27 01:00:46;;;;;;;44.63;24.30;;;;;;;;;;5093838;28;20118;-62
2022/03/27 01:03:12;;;;;;;2.10;2.00;;;;;;;;;;5058823;28;20032;-63
2022/03/27 01:05:41;;;;;;;0.10;0.10;;;;;;;;;;5093469;28;20036;-64
2022/03/27 01:08:12;;;;;;;0.82;0.65;;;;;;;;;;5058821;28;20024;-64
2022/03/27 01:10:43;;;;;;;1.08;1.05;;;;;;;;;;5050977;28;20036;-63
2022/03/27 01:13:15;;;;;;;0.43;0.43;;;;;;;;;;5073412;28;20036;-65
2022/03/27 01:15:46;;;;;;;0.20;0.20;;;;;;;;;;5055388;28;20395;-64
2022/03/27 01:18:12;;;;;;;0.20;0.20;;;;;;;;;;5038584;28;20476;-63
2022/03/27 01:20:41;;;;;;;0.25;0.25;;;;;;;;;;5066622;28;20034;-63
2022/03/27 01:23:09;;;;;;;3.20;3.03;;;;;;;;;;5074915;28;20036;-62
2022/03/27 01:25:35;;;;;;;0.47;0.47;;;;;;;;;;5038701;28;20036;-62
2022/03/27 01:28:01;;;;;;;0.65;0.65;;;;;;;;;;5072875;28;20533;-63
2022/03/27 01:30:27;;;;;;;0.20;0.20;;;;;;;;;;5072193;28;20056;-62
2022/03/27 01:32:53;;;;;;;0.95;0.95;;;;;;;;;;5038400;28;20040;-62
2022/03/27 01:35:19;;;;;;;0.20;0.20;;;;;;;;;;5038208;28;20037;-61
2022/03/27 01:37:48;;;;;;;1.77;1.70;;;;;;;;;;5073202;28;20033;-61
2022/03/27 01:40:13;;;;;;;5.97;5.72;;;;;;;;;;5072988;28;20028;-61
2022/03/27 01:42:39;;;;;;;0.20;0.20;;;;;;;;;;5073077;28;20040;-62
2022/03/27 01:45:05;;;;;;;0.30;0.30;;;;;;;;;;5072899;28;20495;-61
2022/03/27 01:47:31;;;;;;;5.43;5.05;;;;;;;;;;5038150;28;20033;-61
2022/03/27 01:49:56;;;;;;;0.80;0.80;;;;;;;;;;5038378;28;20032;-62
2022/03/27 01:52:22;;;;;;;1.38;1.27;;;;;;;;;;5072866;28;20075;-62
2022/03/27 01:54:47;;;;;;;0.20;0.20;;;;;;;;;;5072870;28;20060;-62
2022/03/27 01:57:13;;;;;;;0.20;0.20;;;;;;;;;;5054894;28;20050;-62
2022/03/27 01:59:39;;;;;;;0.20;0.20;;;;;;;;;;5037868;28;20066;-63
2022/03/27 02:02:04;;;;;;;0.20;0.20;;;;;;;;;;5054738;28;20036;-63
2022/03/27 02:04:30;;;;;;;9.43;8.98;;;;;;;;;;5037894;28;20503;-62
2022/03/27 02:06:55;;;;;;;1.10;1.10;;;;;;;;;;5072658;28;20081;-62
2022/03/27 02:09:21;;;;;;;0.20;0.20;;;;;;;;;;5072813;28;20033;-62
2022/03/27 02:11:47;;;;;;;0.20;0.20;;;;;;;;;;5072689;28;20036;-62
2022/03/27 02:14:13;;;;;;;0.15;0.15;;;;;;;;;;5072618;28;20376;-62
2022/03/27 02:16:39;;;;;;;0.28;0.28;;;;;;;;;;5037993;28;20033;-61
2022/03/27 02:19:08;;;;;;;1.67;1.65;;;;;;;;;;5037785;28;20082;-62
2022/03/27 02:21:34;;;;;;;0.57;0.57;;;;;;;;;;5054949;28;20063;-61
2022/03/27 02:24:03;;;;;;;0.30;0.30;;;;;;;;;;5054261;28;20488;-62
2022/03/27 02:26:29;;;;;;;0.20;0.20;;;;;;;;;;5038188;28;20036;-61
2022/03/27 02:28:54;;;;;;;0.20;0.20;;;;;;;;;;5054383;28;20442;-63
2022/03/27 02:31:19;;;;;;;0.68;0.68;;;;;;;;;;5072363;28;20128;-64
2022/03/27 02:33:45;;;;;;;0.88;0.88;;;;;;;;;;5054346;28;20399;-62
2022/03/27 02:36:10;;;;;;;0.30;0.30;;;;;;;;;;5072186;28;20025;-63
2022/03/27 02:38:36;;;;;;;0.17;0.17;;;;;;;;;;5072172;28;20033;-62
2022/03/27 02:41:03;;;;;;;0.30;0.30;;;;;;;;;;5056142;28;20037;-62
2022/03/27 02:43:29;;;;;;;0.20;0.20;;;;;;;;;;5057754;28;20036;-62
2022/03/27 02:45:55;;;;;;;0.30;0.30;;;;;;;;;;5075890;28;20357;-63
2022/03/27 02:48:21;;;;;;;0.20;0.20;;;;;;;;;;5057577;28;20072;-62
2022/03/27 02:50:47;;;;;;;0.20;0.20;;;;;;;;;;5075677;28;20036;-62
2022/03/27 02:53:12;;;;;;;0.75;0.75;;;;;;;;;;5041088;28;20044;-62
2022/03/27 02:55:38;;;;;;;0.20;0.20;;;;;;;;;;5057648;28;20511;-61
2022/03/27 02:58:03;;;;;;;0.20;0.20;;;;;;;;;;5075592;28;20032;-62
2022/03/27 03:00:29;;;;;;;0.75;0.75;;;;;;;;;;5075539;28;20146;-62
2022/03/27 03:02:54;;;;;;;0.10;0.10;;;;;;;;;;5053320;28;20028;-62
2022/03/27 03:05:20;;;;;;;2.10;2.00;;;;;;;;;;5071299;28;20039;-62
2022/03/27 03:07:46;;;;;;;0.20;0.20;;;;;;;;;;5071988;28;20493;-62
2022/03/27 03:10:14;;;;;;;0.20;0.20;;;;;;;;;;5071240;28;20034;-62
2022/03/27 03:12:39;;;;;;;0.30;0.30;;;;;;;;;;5036743;28;20043;-63
2022/03/27 03:15:05;;;;;;;0.22;0.22;;;;;;;;;;5053123;28;20029;-64
2022/03/27 03:17:31;;;;;;;0.70;0.70;;;;;;;;;;5071585;28;20067;-62
2022/03/27 03:19:56;;;;;;;1.13;1.08;;;;;;;;;;5037024;28;20025;-63
2022/03/27 03:22:22;;;;;;;0.20;0.20;;;;;;;;;;5053347;28;20032;-63
2022/03/27 03:24:47;;;;;;;0.20;0.20;;;;;;;;;;5071338;28;20032;-62
2022/03/27 03:27:13;;;;;;;0.25;0.25;;;;;;;;;;5071256;28;20102;-63
2022/03/27 03:29:38;;;;;;;0.20;0.20;;;;;;;;;;5071119;28;20368;-65
2022/03/27 03:32:04;;;;;;;0.20;0.20;;;;;;;;;;5053332;28;20040;-63
2022/03/27 03:34:30;;;;;;;0.20;0.20;;;;;;;;;;5036474;28;20115;-62
2022/03/27 03:36:56;;;;;;;0.20;0.20;;;;;;;;;;5070776;28;20029;-62
2022/03/27 03:39:22;;;;;;;0.30;0.30;;;;;;;;;;5036614;28;20037;-61
2022/03/27 03:41:47;;;;;;;0.20;0.20;;;;;;;;;;5071049;28;20089;-62
2022/03/27 03:44:13;;;;;;;0.20;0.20;;;;;;;;;;5070661;28;20033;-62
2022/03/27 03:46:38;;;;;;;0.10;0.10;;;;;;;;;;5036810;28;20119;-64
2022/03/27 03:49:07;;;;;;;3.05;2.95;;;;;;;;;;5036467;28;20841;-62
2022/03/27 03:51:35;;;;;;;0.20;0.20;;;;;;;;;;5052598;28;20633;-63
2022/03/27 03:54:01;;;;;;;0.30;0.30;;;;;;;;;;5052633;28;20032;-69
2022/03/27 03:56:27;;;;;;;0.20;0.20;;;;;;;;;;5052443;28;20476;-62
2022/03/27 03:58:52;;;;;;;0.30;0.30;;;;;;;;;;5070675;28;20081;-62
2022/03/27 04:01:18;;;;;;;0.82;0.82;;;;;;;;;;5070498;28;20392;-62
2022/03/27 04:03:43;;;;;;;0.20;0.20;;;;;;;;;;5036202;28;20074;-66
2022/03/27 04:06:09;;;;;;;0.13;0.13;;;;;;;;;;5070395;28;20031;-63
2022/03/27 04:08:36;;;;;;;0.20;0.20;;;;;;;;;;5070672;28;20036;-62
2022/03/27 04:11:01;;;;;;;0.35;0.35;;;;;;;;;;5036180;28;20431;-70
2022/03/27 04:13:27;;;;;;;0.10;0.10;;;;;;;;;;5070920;28;20040;-63
2022/03/27 04:15:52;;;;;;;0.38;0.38;;;;;;;;;;5070364;28;20044;-66
2022/03/27 04:18:18;;;;;;;0.20;0.20;;;;;;;;;;5052610;28;20036;-63
2022/03/27 04:20:43;;;;;;;0.20;0.20;;;;;;;;;;5070569;28;20028;-62
2022/03/27 04:23:09;;;;;;;0.20;0.20;;;;;;;;;;5052337;28;20761;-63
2022/03/27 04:25:35;;;;;;;0.20;0.20;;;;;;;;;;5052422;28;20499;-65
2022/03/27 04:28:04;;;;;;;0.10;0.10;;;;;;;;;;5070511;28;20070;-62
2022/03/27 04:30:30;;;;;;;0.20;0.20;;;;;;;;;;5035130;28;20066;-62
2022/03/27 04:32:55;;;;;;;0.30;0.30;;;;;;;;;;5051948;28;20032;-63
2022/03/27 04:35:20;;;;;;;0.20;0.20;;;;;;;;;;5069897;28;20083;-63
2022/03/27 04:37:47;;;;;;;0.75;0.47;;;;;;;;;;5070257;28;20037;-62
2022/03/27 04:40:13;;;;;;;0.40;0.40;;;;;;;;;;5069995;28;20127;-66
2022/03/27 04:42:40;;;;;;;0.20;0.20;;;;;;;;;;5046719;28;20031;-63
2022/03/27 04:45:05;;;;;;;0.20;0.20;;;;;;;;;;5051999;28;20079;-62
2022/03/27 04:47:31;;;;;;;0.20;0.20;;;;;;;;;;5052005;28;20068;-62
2022/03/27 04:49:56;;;;;;;0.30;0.30;;;;;;;;;;5070013;28;20029;-66
2022/03/27 04:52:22;;;;;;;0.17;0.17;;;;;;;;;;5049292;28;20067;-63
2022/03/27 04:54:47;;;;;;;0.20;0.20;;;;;;;;;;5049893;28;20068;-63
2022/03/27 04:57:13;;;;;;;0.20;0.20;;;;;;;;;;5050133;28;20052;-63
2022/03/27 04:59:38;;;;;;;0.20;0.20;;;;;;;;;;5049750;28;20404;-64
2022/03/27 05:02:05;;;;;;;0.30;0.30;;;;;;;;;;5049667;28;20074;-68
2022/03/27 05:04:31;;;;;;;0.20;0.20;;;;;;;;;;5031616;28;20148;-62
2022/03/27 05:06:57;;;;;;;0.20;0.20;;;;;;;;;;5049925;28;20104;-62
2022/03/27 05:09:22;;;;;;;0.20;0.20;;;;;;;;;;5049662;28;20075;-63
2022/03/27 05:11:48;;;;;;;0.20;0.20;;;;;;;;;;5032166;28;20056;-62
2022/03/27 05:14:13;;;;;;;0.30;0.30;;;;;;;;;;5049542;28;20917;-62
2022/03/27 05:16:39;;;;;;;0.20;0.20;;;;;;;;;;5049432;28;20072;-64
2022/03/27 05:19:04;;;;;;;0.20;0.20;;;;;;;;;;5015197;28;20541;-62
2022/03/27 05:21:31;;;;;;;0.20;0.20;;;;;;;;;;5049477;28;20393;-62
2022/03/27 05:23:57;;;;;;;0.20;0.20;;;;;;;;;;5031856;28;20064;-63
2022/03/27 05:26:22;;;;;;;0.65;0.65;;;;;;;;;;5049038;28;20828;-66
2022/03/27 05:28:48;;;;;;;0.22;0.22;;;;;;;;;;5049418;28;20043;-62
2022/03/27 05:31:13;;;;;;;0.30;0.30;;;;;;;;;;5049122;28;20404;-62
2022/03/27 05:33:39;;;;;;;0.20;0.20;;;;;;;;;;5049178;28;20079;-62
2022/03/27 05:36:05;;;;;;;0.20;0.20;;;;;;;;;;5031668;28;20025;-62
2022/03/27 05:38:30;;;;;;;0.20;0.20;;;;;;;;;;5031164;28;20047;-62
2022/03/27 05:40:55;;;;;;;0.20;0.20;;;;;;;;;;5015029;28;20033;-62
2022/03/27 05:43:21;;;;;;;0.47;0.47;;;;;;;;;;5049110;28;20134;-62
2022/03/27 05:45:47;;;;;;;0.22;0.22;;;;;;;;;;5048686;28;20032;-63
2022/03/27 05:48:13;;;;;;;0.20;0.20;;;;;;;;;;5014290;28;20560;-62
2022/03/27 05:50:39;;;;;;;0.20;0.20;;;;;;;;;;5014969;28;20043;-62
2022/03/27 05:53:04;;;;;;;1.02;1.02;;;;;;;;;;5031202;28;20064;-64
2022/03/27 05:55:30;;;;;;;0.20;0.20;;;;;;;;;;5049164;28;20036;-62
2022/03/27 05:57:55;;;;;;;0.20;0.20;;;;;;;;;;5048888;28;20033;-62
2022/03/27 06:00:21;;;;;;;0.10;0.10;;;;;;;;;;5048754;28;20041;-61
2022/03/27 06:02:47;;;;;;;0.20;0.20;;;;;;;;;;5048788;28;20333;-61
2022/03/27 06:05:13;;;;;;;0.22;0.22;;;;;;;;;;5043661;28;20040;-61
2022/03/27 06:07:45;;;;;;;0.55;0.55;;;;;;;;;;5068704;28;20047;-62
2022/03/27 06:10:11;;;;;;;0.20;0.20;;;;;;;;;;5034169;28;20155;-67
2022/03/27 06:12:37;;;;;;;0.20;0.20;;;;;;;;;;5068975;28;20162;-61
2022/03/27 06:15:03;;;;;;;0.10;0.10;;;;;;;;;;5052264;28;20086;-63
2022/03/27 06:17:29;;;;;;;0.10;0.10;;;;;;;;;;5034680;28;20036;-65
2022/03/27 06:19:54;;;;;;;0.20;0.20;;;;;;;;;;5033480;28;20123;-61
2022/03/27 06:22:20;;;;;;;21.85;19.85;;;;;;;;;;5068434;28;20055;-62
2022/03/27 06:24:45;;;;;;;0.10;0.10;;;;;;;;;;5068660;28;20098;-61
2022/03/27 06:27:10;;;;;;;0.20;0.20;;;;;;;;;;5050841;28;20039;-62
2022/03/27 06:29:36;;;;;;;0.10;0.10;;;;;;;;;;5067211;28;20048;-62
2022/03/27 06:32:01;;;;;;;0.17;0.17;;;;;;;;;;5065948;28;20037;-62
2022/03/27 06:34:29;;;;;;;0.20;0.20;;;;;;;;;;5066156;28;20040;-64
2022/03/27 06:36:55;;;;;;;0.17;0.17;;;;;;;;;;5066296;28;20074;-63
2022/03/27 06:39:21;;;;;;;0.10;0.10;;;;;;;;;;5066461;28;20040;-66
2022/03/27 06:41:46;;;;;;;0.10;0.10;;;;;;;;;;5032033;28;20451;-64
2022/03/27 06:44:13;;;;;;;0.20;0.20;;;;;;;;;;5066560;28;20037;-62
2022/03/27 06:46:39;;;;;;;0.10;0.10;;;;;;;;;;5033578;28;20036;-63
2022/03/27 06:49:04;;;;;;;0.20;0.20;;;;;;;;;;5068164;28;20047;-62
2022/03/27 06:51:31;;;;;;;0.20;0.20;;;;;;;;;;5068101;28;20032;-61
2022/03/27 06:53:57;;;;;;;0.20;0.20;;;;;;;;;;5033625;28;20387;-62
2022/03/27 06:56:22;;;;;;;0.20;0.20;;;;;;;;;;5068207;28;20020;-62
2022/03/27 06:58:47;;;;;;;0.10;0.10;;;;;;;;;;5068171;28;20499;-61
2022/03/27 07:03:57;;;;;;;0.17;0.17;;;;;;;;;;5068165;28;20047;-62
2022/03/27 07:06:23;;;;;;;0.20;0.20;;;;;;;;;;5069295;28;20044;-62
2022/03/27 07:08:48;;;;;;;0.15;0.15;;;;;;;;;;5033598;28;20542;-62
2022/03/27 07:11:14;;;;;;;0.10;0.10;;;;;;;;;;5067957;28;20060;-69
2022/03/27 07:13:41;;;;;;;0.13;0.13;;;;;;;;;;5067141;28;20040;-63
2022/03/27 07:16:07;;;;;;;0.20;0.20;;;;;;;;;;5036343;28;20024;-63
2022/03/27 07:18:32;;;;;;;0.10;0.10;;;;;;;;;;5049937;28;20028;-62
2022/03/27 07:20:59;;;;;;;3.20;3.05;;;;;;;;;;5088277;28;20396;-62
2022/03/27 07:23:24;;;;;;;0.10;0.10;;;;;;;;;;5051896;28;20399;-62
2022/03/27 07:25:52;;;;;;;0.20;0.20;;;;;;;;;;5052014;28;20036;-63
2022/03/27 07:28:18;;;;;;;0.20;0.20;;;;;;;;;;5049513;28;20074;-63
2022/03/27 07:30:45;;;;;;;0.20;0.20;;;;;;;;;;5058169;28;20024;-68
2022/03/27 07:33:11;;;;;;;0.20;0.20;;;;;;;;;;5052083;28;20036;-61
2022/03/27 07:35:37;;;;;;;0.20;0.20;;;;;;;;;;5036656;28;20036;-68
2022/03/27 07:38:03;;;;;;;0.20;0.20;;;;;;;;;;5055552;28;20024;-62
2022/03/27 07:40:29;;;;;;;0.20;0.20;;;;;;;;;;5056812;28;20407;-61
2022/03/27 07:42:55;;;;;;;0.20;0.20;;;;;;;;;;5073230;28;20056;-62
2022/03/27 07:45:22;;;;;;;0.40;0.40;;;;;;;;;;5054560;28;20029;-62
2022/03/27 07:47:49;;;;;;;0.20;0.20;;;;;;;;;;5079625;28;20468;-61
2022/03/27 07:50:14;;;;;;;5.82;5.47;;;;;;;;;;5044854;28;20115;-62
2022/03/27 07:52:40;;;;;;;0.28;0.28;;;;;;;;;;5086109;28;20449;-62
2022/03/27 07:55:06;;;;;;;0.20;0.20;;;;;;;;;;5058251;28;20027;-61
2022/03/27 07:57:32;;;;;;;0.30;0.30;;;;;;;;;;5070541;28;20037;-61
2022/03/27 07:59:58;;;;;;;0.30;0.30;;;;;;;;;;5036316;28;20411;-62
2022/03/27 08:02:24;;;;;;;1.35;0.73;;;;;;;;;;5080779;28;20036;-62
2022/03/27 08:04:49;;;;;;;0.20;0.20;;;;;;;;;;5073885;28;20086;-62
2022/03/27 08:07:15;;;;;;;0.30;0.30;;;;;;;;;;5077324;28;20426;-61
2022/03/27 08:09:41;;;;;;;0.35;0.35;;;;;;;;;;5081352;28;20031;-61
2022/03/27 08:12:09;;;;;;;0.30;0.30;;;;;;;;;;5075585;28;20043;-63
2022/03/27 08:14:35;;;;;;;0.27;0.27;;;;;;;;;;5041286;28;20041;-61
2022/03/27 08:17:01;;;;;;;0.30;0.30;;;;;;;;;;5076740;28;20028;-62
2022/03/27 08:19:27;;;;;;;0.32;0.32;;;;;;;;;;5070690;28;20593;-61
2022/03/27 08:21:53;;;;;;;0.30;0.30;;;;;;;;;;5070620;28;20074;-61
2022/03/27 08:24:19;;;;;;;0.30;0.30;;;;;;;;;;5070436;28;20039;-61
2022/03/27 08:26:57;;;;;;;0.45;0.45;;;;;;;;;;5035862;28;20035;-62
2022/03/27 08:29:24;;;;;;;0.20;0.20;;;;;;;;;;5070289;28;20082;-65
2022/03/27 08:31:50;;;;;;;0.35;0.35;;;;;;;;;;5052846;28;20286;-61
2022/03/27 08:34:17;;;;;;;0.20;0.20;;;;;;;;;;5035517;28;20058;-61
2022/03/27 08:36:42;;;;;;;18.17;1.05;;;;;;;;;;5051736;28;20116;-60
2022/03/27 08:39:08;;;;;;;0.30;0.30;;;;;;;;;;5052046;28;20107;-62
2022/03/27 08:41:34;;;;;;;0.30;0.30;;;;;;;;;;5052292;28;20549;-60
2022/03/27 08:44:00;;;;;;;0.30;0.30;;;;;;;;;;5035910;28;20032;-58
2022/03/27 08:46:26;;;;;;;0.20;0.20;;;;;;;;;;5051953;28;20040;-61
2022/03/27 08:48:53;;;;;;;0.20;0.20;;;;;;;;;;5035767;28;20043;-61
2022/03/27 08:51:29;;;;;;;0.30;0.30;;;;;;;;;;5035369;28;20771;-61
2022/03/27 08:53:58;;;;;;;0.20;0.20;;;;;;;;;;5051872;28;20067;-61
2022/03/27 08:56:24;;;;;;;0.40;0.40;;;;;;;;;;5035003;28;20064;-65
2022/03/27 08:58:51;;;;;;;0.40;0.40;;;;;;;;;;5035665;28;20127;-61
2022/03/27 09:01:17;;;;;;;0.30;0.30;;;;;;;;;;5069991;28;20020;-61
2022/03/27 09:03:43;;;;;;;0.35;0.35;;;;;;;;;;5069641;28;20082;-61
2022/03/27 09:06:08;;;;;;;0.30;0.30;;;;;;;;;;5071687;28;20093;-62
2022/03/27 09:08:34;;;;;;;0.88;0.88;;;;;;;;;;5061348;28;20109;-62
2022/03/27 09:11:01;;;;;;;0.52;0.52;;;;;;;;;;5035045;28;20236;-61
2022/03/27 09:13:27;;;;;;;0.50;0.50;;;;;;;;;;5035123;28;20089;-67
2022/03/27 09:16:06;;;;;;;0.30;0.30;;;;;;;;;;5069669;28;20104;-66
2022/03/27 09:18:55;;;;;;;1.88;1.65;;;;;;;;;;5050347;28;20036;-68
2022/03/27 09:21:22;;;;;;;0.40;0.40;;;;;;;;;;5068863;28;20507;-68
2022/03/27 09:23:51;;;;;;;0.50;0.50;;;;;;;;;;5051813;28;20076;-67
2022/03/27 09:26:17;;;;;;;;;;;;;;;;;;5069721;28;20055;-68
2022/03/27 09:28:44;;;;;;;0.30;0.30;;;;;;;;;;5049702;28;19912;-67
2022/03/27 09:31:13;;;;;;;3.03;2.92;;;;;;;;;;5067274;28;20029;-68
2022/03/27 09:33:46;;;;;;;0.30;0.30;;;;;;;;;;5049129;28;20089;-68
2022/03/27 09:36:13;;;;;;;0.30;0.30;;;;;;;;;;5067309;28;20107;-68
2022/03/27 09:38:39;;;;;;;0.68;0.68;;;;;;;;;;5067581;28;20471;-67
2022/03/27 09:41:05;;;;;;;0.30;0.30;;;;;;;;;;5049354;28;20085;-67
2022/03/27 09:43:31;;;;;;;0.30;0.30;;;;;;;;;;5068551;28;20028;-68
2022/03/27 09:45:58;;;;;;;0.30;0.30;;;;;;;;;;5051223;28;20445;-68
2022/03/27 09:48:24;;;;;;;0.68;0.65;;;;;;;;;;5068911;28;20032;-68
2022/03/27 09:50:51;;;;;;;1.35;1.33;;;;;;;;;;5068089;28;20033;-67
2022/03/27 09:53:21;;;;;;;0.30;0.30;;;;;;;;;;5051238;28;20040;-67
2022/03/27 09:55:50;;;;;;;0.40;0.40;;;;;;;;;;5069125;28;20028;-68
2022/03/27 09:58:16;;;;;;;0.30;0.30;;;;;;;;;;5034157;28;20373;-67
2022/03/27 10:00:45;;;;;;;0.40;0.40;;;;;;;;;;5069096;28;20043;-67
2022/03/27 10:03:10;;;;;;;0.32;0.32;;;;;;;;;;5051542;28;20495;-67
2022/03/27 10:05:36;;;;;;;0.28;0.28;;;;;;;;;;5050905;28;20037;-67
2022/03/27 10:08:02;;;;;;;2.35;1.42;;;;;;;;;;5051204;28;20082;-67
2022/03/27 10:10:28;;;;;;;8.07;4.53;;;;;;;;;;5050698;28;20032;-66
2022/03/27 10:12:55;;;;;;;0.85;0.80;;;;;;;;;;5068914;28;20020;-66
2022/03/27 10:15:28;;;;;;;17.65;2.75;;;;;;;;;;5051028;28;20091;-66
2022/03/27 10:18:13;;;;;;;3.67;2.47;;;;;;;;;;5050374;28;20038;-68
2022/03/27 10:20:39;;;;;;;7.72;3.45;;;;;;;;;;5051163;28;20044;-67
2022/03/27 10:23:10;;;;;;;5.18;2.75;;;;;;;;;;5068886;28;20020;-67
2022/03/27 10:25:44;;;;;;;2.47;1.33;;;;;;;;;;5034441;28;20965;-67
2022/03/27 10:28:10;;;;;;;2.15;1.95;;;;;;;;;;5049987;28;20090;-67
2022/03/27 10:30:36;;;;;;;8.80;3.63;;;;;;;;;;5050886;28;20037;-67
2022/03/27 10:33:02;;;;;;;0.73;0.63;;;;;;;;;;5068321;28;20104;-67
2022/03/27 10:35:42;;;;;;;7.78;3.28;;;;;;;;;;5068488;28;20447;-66
2022/03/27 10:38:34;;;;;;;3.17;2.25;;;;;;;;;;5050254;28;20040;-66
2022/03/27 10:41:20;;;;;;;0.40;0.40;;;;;;;;;;5064744;28;20222;-67
2022/03/27 10:43:49;;;;;;;2.08;1.92;;;;;;;;;;5068157;28;20115;-67
2022/03/27 10:46:15;;;;;;;4.63;2.65;;;;;;;;;;5068205;28;20036;-67
2022/03/27 10:48:42;;;;;;;5.38;2.03;;;;;;;;;;5068355;28;20039;-67
2022/03/27 10:51:12;;;;;;;0.70;0.70;;;;;;;;;;5050119;28;20123;-69
2022/03/27 10:53:38;;;;;;;0.40;0.40;;;;;;;;;;5068829;28;20123;-68
2022/03/27 10:56:04;;;;;;;0.22;0.22;;;;;;;;;;5034003;28;20119;-66
2022/03/27 10:58:29;;;;;;;0.52;0.52;;;;;;;;;;5068048;28;20029;-67
2022/03/27 11:00:55;;;;;;;0.30;0.30;;;;;;;;;;5050653;28;20032;-67
2022/03/27 11:03:39;;;;;;;0.20;0.20;;;;;;;;;;5053551;28;20493;-67
2022/03/27 11:06:05;;;;;;;0.73;0.73;;;;;;;;;;5054053;28;20472;-66
2022/03/27 11:08:30;;;;;;;0.30;0.30;;;;;;;;;;5053322;28;20028;-67
2022/03/27 11:10:59;;;;;;;0.30;0.30;;;;;;;;;;5037135;28;20074;-67
2022/03/27 11:13:25;;;;;;;0.40;0.40;;;;;;;;;;5071633;28;20376;-67
2022/03/27 11:16:02;;;;;;;0.30;0.30;;;;;;;;;;5036944;28;20074;-67
2022/03/27 11:18:35;;;;;;;0.28;0.28;;;;;;;;;;5071252;28;20025;-67
2022/03/27 11:21:00;;;;;;;1.33;1.23;;;;;;;;;;5053524;28;20048;-67
2022/03/27 11:23:27;;;;;;;0.20;0.20;;;;;;;;;;5053582;28;20147;-67
2022/03/27 11:25:52;;;;;;;0.77;0.65;;;;;;;;;;5071703;28;20037;-67
2022/03/27 11:28:20;;;;;;;0.80;0.75;;;;;;;;;;5071004;28;20040;-66
2022/03/27 11:30:53;;;;;;;0.63;0.63;;;;;;;;;;5071479;28;20036;-66
2022/03/27 11:33:26;;;;;;;0.25;0.25;;;;;;;;;;5082389;28;20444;-66
2022/03/27 11:36:01;;;;;;;0.55;0.50;;;;;;;;;;5065241;28;20453;-68
2022/03/27 11:38:49;;;;;;;0.63;0.63;;;;;;;;;;5075072;28;20921;-67
2022/03/27 11:41:21;;;;;;;2.17;2.08;;;;;;;;;;5051453;28;20045;-67
2022/03/27 11:43:47;;;;;;;0.30;0.30;;;;;;;;;;5036619;28;20032;-67
2022/03/27 11:46:42;;;;;;;0.30;0.30;;;;;;;;;;5071058;28;20039;-67
2022/03/27 11:49:08;;;;;;;0.30;0.30;;;;;;;;;;5040536;28;20037;-67
2022/03/27 11:51:33;;;;;;;3.78;1.17;;;;;;;;;;5070590;28;20370;-68
2022/03/27 11:53:59;;;;;;;0.30;0.30;;;;;;;;;;5070591;28;20115;-68
2022/03/27 11:56:25;;;;;;;0.38;0.38;;;;;;;;;;5070629;28;20059;-68
2022/03/27 11:59:03;;;;;;;0.88;0.88;;;;;;;;;;5058183;28;20036;-68
2022/03/27 12:01:29;;;;;;;0.47;0.47;;;;;;;;;;5057779;28;20042;-69
2022/03/27 12:03:58;;;;;;;0.30;0.30;;;;;;;;;;5064988;28;20028;-67
2022/03/27 12:06:27;;;;;;;3.30;1.67;;;;;;;;;;5078026;28;20690;-67
2022/03/27 12:08:53;;;;;;;0.32;0.32;;;;;;;;;;5058851;28;20384;-68
2022/03/27 12:11:26;;;;;;;2.50;1.73;;;;;;;;;;5071118;28;20025;-67
2022/03/27 12:13:52;;;;;;;0.20;0.20;;;;;;;;;;5069911;28;20033;-68
2022/03/27 12:16:22;;;;;;;0.50;0.50;;;;;;;;;;5039901;28;20472;-67
2022/03/27 12:18:48;;;;;;;0.30;0.30;;;;;;;;;;5079433;28;20032;-68
2022/03/27 12:21:14;;;;;;;0.40;0.40;;;;;;;;;;5078038;28;20036;-68
2022/03/27 12:23:41;;;;;;;0.40;0.40;;;;;;;;;;5036463;28;20249;-68
2022/03/27 12:31:50;;;;;;;2.13;1.60;;;;;;;;;;5079782;28;20097;-68
2022/03/27 12:34:16;;;;;;;0.20;0.20;;;;;;;;;;5052209;28;20024;-68
2022/03/27 12:37:02;;;;;;;1.00;1.00;;;;;;;;;;5052344;28;20030;-68
2022/03/27 12:39:28;;;;;;;0.30;0.30;;;;;;;;;;5070613;28;20029;-67
2022/03/27 12:41:53;;;;;;;0.40;0.40;;;;;;;;;;5052335;28;20024;-68
2022/03/27 12:44:18;;;;;;;2.85;0.52;;;;;;;;;;5051775;28;20124;-68
2022/03/27 12:46:48;;;;;;;0.65;0.65;;;;;;;;;;5052582;28;20044;-67
2022/03/27 12:49:14;;;;;;;0.43;0.43;;;;;;;;;;5070039;28;20029;-70
2022/03/27 12:51:39;;;;;;;0.40;0.40;;;;;;;;;;5052035;28;20052;-68
2022/03/27 12:54:07;;;;;;;0.30;0.30;;;;;;;;;;5069334;28;20029;-69
2022/03/27 12:56:33;;;;;;;0.55;0.50;;;;;;;;;;5069818;28;20468;-69
2022/03/27 12:58:59;;;;;;;0.55;0.55;;;;;;;;;;5069958;28;20043;-69
2022/03/27 13:01:24;;;;;;;0.30;0.30;;;;;;;;;;5070013;28;20028;-69
2022/03/27 13:04:00;;;;;;;0.55;0.55;;;;;;;;;;5069738;28;20453;-68
2022/03/27 13:06:35;;;;;;;0.30;0.30;;;;;;;;;;5049914;28;20452;-68
2022/03/27 13:09:03;;;;;;;0.30;0.30;;;;;;;;;;5067815;28;20032;-68
2022/03/27 13:11:28;;;;;;;0.30;0.30;;;;;;;;;;5067958;28;20024;-69
2022/03/27 13:14:01;;;;;;;0.30;0.30;;;;;;;;;;5049910;28;20040;-69
2022/03/27 13:16:29;;;;;;;1.83;1.73;;;;;;;;;;5067554;28;20570;-69
2022/03/27 13:19:03;;;;;;;0.30;0.30;;;;;;;;;;5067910;28;20033;-69
2022/03/27 13:21:39;;;;;;;0.30;0.30;;;;;;;;;;5069705;28;20113;-69
2022/03/27 13:24:09;;;;;;;0.50;0.50;;;;;;;;;;5069683;28;20044;-68
2022/03/27 13:26:36;;;;;;;0.63;0.63;;;;;;;;;;5051537;28;20063;-69
2022/03/27 13:29:02;;;;;;;0.60;0.60;;;;;;;;;;5069488;28;20036;-70
2022/03/27 13:31:28;;;;;;;0.30;0.30;;;;;;;;;;5069865;28;20555;-69
2022/03/27 13:33:54;;;;;;;0.30;0.30;;;;;;;;;;5069844;28;20032;-68
2022/03/27 13:36:19;;;;;;;0.40;0.40;;;;;;;;;;5051283;28;20484;-69
2022/03/27 13:38:45;;;;;;;0.30;0.30;;;;;;;;;;5069477;28;20120;-69
2022/03/27 13:43:55;;;;;;;0.28;0.28;;;;;;;;;;5065064;28;20071;-69
2022/03/27 13:46:23;;;;;;;0.30;0.30;;;;;;;;;;5067050;28;20099;-69
2022/03/27 13:48:49;;;;;;;0.20;0.20;;;;;;;;;;5066926;28;20082;-68
2022/03/27 13:51:14;;;;;;;0.55;0.55;;;;;;;;;;5032465;28;20431;-67
2022/03/27 13:53:40;;;;;;;0.30;0.30;;;;;;;;;;5032894;28;20094;-68
2022/03/27 13:56:06;;;;;;;1.75;1.65;;;;;;;;;;5066678;28;20078;-68
2022/03/27 13:58:31;;;;;;;0.75;0.70;;;;;;;;;;5067401;28;20384;-68
2022/03/27 14:00:57;;;;;;;0.20;0.20;;;;;;;;;;5067098;28;20078;-68
2022/03/27 14:03:24;;;;;;;0.38;0.38;;;;;;;;;;5049235;28;20029;-68
2022/03/27 14:05:52;;;;;;;0.30;0.30;;;;;;;;;;5048822;28;20066;-68
2022/03/27 14:08:18;;;;;;;1.23;1.17;;;;;;;;;;5048339;28;20032;-69
2022/03/27 14:10:43;;;;;;;0.50;0.50;;;;;;;;;;5048927;28;20051;-70
2022/03/27 14:13:09;;;;;;;1.40;1.38;;;;;;;;;;5066818;28;20028;-69
2022/03/27 14:15:37;;;;;;;0.30;0.30;;;;;;;;;;5067016;28;20380;-69
2022/03/27 14:18:03;;;;;;;0.20;0.20;;;;;;;;;;5065972;28;20032;-69
2022/03/27 14:20:28;;;;;;;0.47;0.47;;;;;;;;;;5048187;28;20557;-69
2022/03/27 14:22:54;;;;;;;0.30;0.30;;;;;;;;;;5067026;28;20029;-70
2022/03/27 14:25:20;;;;;;;0.30;0.30;;;;;;;;;;5066138;28;20060;-69
2022/03/27 14:27:46;;;;;;;0.20;0.20;;;;;;;;;;5066725;28;20016;-69
2022/03/27 14:30:14;;;;;;;0.28;0.28;;;;;;;;;;5066066;28;20094;-69
2022/03/27 14:32:41;;;;;;;0.20;0.20;;;;;;;;;;5048459;28;20787;-69
2022/03/27 14:35:07;;;;;;;0.20;0.20;;;;;;;;;;5066425;28;20154;-70
2022/03/27 14:37:33;;;;;;;0.50;0.50;;;;;;;;;;5065996;28;20111;-71
2022/03/27 14:39:59;;;;;;;0.20;0.20;;;;;;;;;;5066421;28;20048;-70
2022/03/27 14:42:25;;;;;;;0.20;0.20;;;;;;;;;;5066102;28;20036;-69
2022/03/27 14:44:51;;;;;;;2.05;1.95;;;;;;;;;;5066478;28;20029;-69
2022/03/27 14:47:17;;;;;;;0.20;0.20;;;;;;;;;;5067201;28;20119;-69
2022/03/27 14:49:42;;;;;;;0.30;0.30;;;;;;;;;;5033830;28;20155;-69
2022/03/27 14:52:08;;;;;;;0.28;0.28;;;;;;;;;;5068054;28;20485;-69
2022/03/27 14:57:18;;;;;;;1.17;0.47;;;;;;;;;;5066374;28;20035;-69